createdAt,value
2023-01-29T00:01:26.727Z,100781.25
2023-01-29T00:03:53.632Z,100774.28
2023-01-29T00:06:20.958Z,100788.91
2023-01-29T00:08:48.060Z,100785.47
2023-01-29T00:11:16.146Z,100778.66
2023-01-29T00:13:44.001Z,100783.81
2023-01-29T00:16:11.061Z,100778.06
2023-01-29T00:18:41.350Z,100782.19
2023-01-29T00:21:17.310Z,100786.19
2023-01-29T00:23:44.647Z,100798.22
2023-01-29T00:26:12.337Z,100781.03
2023-01-29T00:28:43.660Z,100795.03
2023-01-29T00:31:17.040Z,100800.19
2023-01-29T00:33:44.146Z,100792.78
2023-01-29T00:36:14.075Z,100793.13
2023-01-29T00:38:40.935Z,100793.19
2023-01-29T00:41:32.402Z,100790.81
2023-01-29T00:44:18.884Z,100795.50
2023-01-29T00:46:46.353Z,100787.66
2023-01-29T00:49:13.469Z,100795.03
2023-01-29T00:51:40.473Z,100784.50
2023-01-29T00:54:07.737Z,100787.66
2023-01-29T00:56:36.776Z,100793.13
2023-01-29T00:59:04.736Z,100791.50
2023-01-29T01:01:50.480Z,100797.25
2023-01-29T01:04:17.388Z,100795.75
2023-01-29T01:06:44.251Z,100792.97
2023-01-29T01:09:30.023Z,100783.91
2023-01-29T01:11:56.875Z,100787.97
2023-01-29T01:14:23.652Z,100780.31
2023-01-29T01:16:50.542Z,100796.34
2023-01-29T01:19:17.857Z,100792.16
2023-01-29T01:21:47.170Z,100790.59
2023-01-29T01:24:14.542Z,100795.06
2023-01-29T01:26:41.595Z,100798.25
2023-01-29T01:29:09.217Z,100793.25
2023-01-29T01:31:36.321Z,100810.09
2023-01-29T01:34:03.295Z,100809.09
2023-01-29T01:36:32.356Z,100801.66
2023-01-29T01:38:59.352Z,100806.06
2023-01-29T01:41:26.767Z,100809.94
2023-01-29T01:43:59.029Z,100808.94
2023-01-29T01:46:29.834Z,100822.66
2023-01-29T01:49:03.055Z,100823.50
2023-01-29T01:51:32.287Z,100820.97
2023-01-29T01:54:07.827Z,100815.03
2023-01-29T01:56:41.629Z,100828.81
2023-01-29T01:59:12.105Z,100823.97
2023-01-29T02:01:43.004Z,100830.38
2023-01-29T02:04:35.070Z,100820.28
2023-01-29T02:07:25.126Z,100836.50
2023-01-29T02:10:08.611Z,100834.69
2023-01-29T02:12:37.115Z,100836.91
2023-01-29T02:15:04.840Z,100838.91
2023-01-29T02:17:32.483Z,100838.91
2023-01-29T02:20:25.646Z,100832.06
2023-01-29T02:22:55.432Z,100833.19
2023-01-29T02:25:36.313Z,100825.47
2023-01-29T02:28:26.171Z,100832.88
2023-01-29T02:30:58.255Z,100842.16
2023-01-29T02:33:34.101Z,100820.78
2023-01-29T02:36:09.909Z,100827.44
2023-01-29T02:38:47.723Z,100828.50
2023-01-29T02:41:22.983Z,100814.63
2023-01-29T02:44:19.389Z,100822.03
2023-01-29T02:47:01.573Z,100818.75
2023-01-29T02:49:39.381Z,100811.75
2023-01-29T02:52:23.540Z,100800.63
2023-01-29T02:55:15.929Z,100803.78
2023-01-29T02:57:46.662Z,100782.81
2023-01-29T03:00:22.166Z,100794.16
2023-01-29T03:03:07.330Z,100781.56
2023-01-29T03:06:06.405Z,100777.97
2023-01-29T03:08:43.194Z,100766.19
2023-01-29T03:11:16.125Z,100774.34
2023-01-29T03:28:36.759Z,100765.34
2023-01-29T03:31:26.439Z,100761.28
2023-01-29T03:34:24.547Z,100763.34
2023-01-29T03:36:51.175Z,100750.00
2023-01-29T03:39:18.252Z,100742.94
2023-01-29T03:41:56.386Z,100770.88
2023-01-29T03:44:54.383Z,100733.50
2023-01-29T03:47:43.186Z,100727.16
2023-01-29T03:50:21.272Z,100758.88
2023-01-29T03:53:06.914Z,100755.25
2023-01-29T03:55:40.652Z,100763.06
2023-01-29T03:58:32.452Z,100764.47
2023-01-29T04:01:09.606Z,100760.84
2023-01-29T04:03:46.392Z,100767.09
2023-01-29T04:06:27.467Z,100770.88
2023-01-29T04:09:37.545Z,100771.47
2023-01-29T04:12:10.082Z,100782.53
2023-01-29T04:14:40.162Z,100779.34
2023-01-29T04:17:35.114Z,100793.16
2023-01-29T04:20:19.173Z,100811.78
2023-01-29T04:22:49.478Z,100829.69
2023-01-29T04:25:32.420Z,100840.81
2023-01-29T04:28:07.103Z,100861.13
2023-01-29T04:31:03.004Z,100871.53
2023-01-29T04:34:11.344Z,100884.59
2023-01-29T04:37:00.896Z,100887.81
2023-01-29T04:39:55.390Z,100889.94
2023-01-29T04:42:25.488Z,100906.88
2023-01-29T04:45:18.383Z,100916.84
2023-01-29T04:48:10.408Z,100903.13
2023-01-29T04:51:28.078Z,100908.78
2023-01-29T04:54:01.080Z,100907.06
2023-01-29T04:57:03.595Z,100919.91
2023-01-29T04:59:45.940Z,100912.94
2023-01-29T05:02:14.557Z,100930.97
2023-01-29T05:04:44.688Z,100917.31
2023-01-29T05:07:15.264Z,100919.28
2023-01-29T05:09:45.563Z,100907.84
2023-01-29T05:12:14.620Z,100926.25
2023-01-29T05:14:44.668Z,100922.50
2023-01-29T05:17:20.360Z,100920.00
2023-01-29T05:19:47.755Z,100918.06
2023-01-29T05:22:17.845Z,100917.31
2023-01-29T05:24:44.997Z,100927.44
2023-01-29T05:27:37.565Z,100916.78
2023-01-29T05:30:05.223Z,100926.66
2023-01-29T05:32:32.034Z,100930.91
2023-01-29T05:34:58.952Z,100925.59
2023-01-29T05:37:25.841Z,100914.19
2023-01-29T05:39:52.708Z,100930.69
2023-01-29T05:42:19.548Z,100937.59
2023-01-29T05:44:46.392Z,100932.06
2023-01-29T05:47:13.294Z,100939.59
2023-01-29T05:49:40.100Z,100925.91
2023-01-29T05:52:07.037Z,100935.56
2023-01-29T05:54:33.946Z,100945.91
2023-01-29T05:57:00.840Z,100948.19
2023-01-29T05:59:27.708Z,100953.88
2023-01-29T06:01:54.608Z,100962.34
2023-01-29T06:04:21.446Z,100976.06
2023-01-29T06:06:48.275Z,100969.53
2023-01-29T06:09:15.124Z,100978.19
2023-01-29T06:11:42.035Z,100981.22
2023-01-29T06:14:08.853Z,100981.19
2023-01-29T06:16:35.822Z,100978.28
2023-01-29T06:19:02.649Z,100984.03
2023-01-29T06:21:29.552Z,100985.09
2023-01-29T06:23:56.511Z,100977.97
2023-01-29T06:26:23.401Z,100970.47
2023-01-29T06:28:50.913Z,100980.03
2023-01-29T06:31:37.983Z,100992.38
2023-01-29T06:34:06.185Z,100972.44
2023-01-29T06:36:34.794Z,100993.88
2023-01-29T06:39:01.708Z,101003.94
2023-01-29T06:41:28.798Z,100991.38
2023-01-29T06:43:55.710Z,101009.75
2023-01-29T06:46:22.690Z,100997.16
2023-01-29T06:48:49.509Z,101000.63
2023-01-29T06:51:16.418Z,101003.03
2023-01-29T06:53:45.776Z,100997.34
2023-01-29T06:56:13.274Z,101007.16
2023-01-29T06:58:40.180Z,101002.56
2023-01-29T07:01:09.723Z,100998.09
2023-01-29T07:03:37.094Z,100996.75
2023-01-29T07:06:05.289Z,101003.94
2023-01-29T07:08:32.177Z,101017.53
2023-01-29T07:11:02.119Z,101004.91
2023-01-29T07:13:29.373Z,100994.88
2023-01-29T07:16:03.380Z,101016.13
2023-01-29T07:18:31.103Z,100980.41
2023-01-29T07:20:58.769Z,101011.34
2023-01-29T07:23:25.639Z,101016.88
2023-01-29T07:25:52.473Z,101010.75
2023-01-29T07:28:20.678Z,101014.72
2023-01-29T07:30:47.839Z,101016.28
2023-01-29T07:33:14.723Z,101024.03
2023-01-29T07:35:43.688Z,101035.72
2023-01-29T07:38:11.908Z,101038.53
2023-01-29T07:40:38.827Z,101038.53
2023-01-29T07:43:07.626Z,101023.69
2023-01-29T07:45:38.233Z,101046.41
2023-01-29T07:48:12.109Z,101033.59
2023-01-29T07:50:40.016Z,101047.06
2023-01-29T07:53:07.293Z,101049.13
2023-01-29T07:55:34.221Z,101070.06
2023-01-29T07:58:03.338Z,101054.75
2023-01-29T08:00:31.910Z,101045.34
2023-01-29T08:03:12.880Z,101060.19
2023-01-29T08:05:39.785Z,101044.94
2023-01-29T08:08:07.919Z,101045.44
2023-01-29T08:10:36.051Z,101041.38
2023-01-29T08:13:03.774Z,101045.53
2023-01-29T08:15:31.251Z,101054.00
2023-01-29T08:17:58.645Z,101067.69
2023-01-29T08:20:26.293Z,101053.09
2023-01-29T08:23:01.265Z,101047.19
2023-01-29T08:25:28.834Z,101037.78
2023-01-29T08:27:57.941Z,101046.09
2023-01-29T08:30:31.100Z,101028.41
2023-01-29T08:32:58.318Z,101032.69
2023-01-29T08:35:26.021Z,101036.88
2023-01-29T08:37:59.428Z,101038.44
2023-01-29T08:40:28.782Z,101028.63
2023-01-29T08:43:04.539Z,101028.28
2023-01-29T08:45:35.305Z,101036.34
2023-01-29T08:48:02.624Z,101031.28
2023-01-29T08:50:30.899Z,101035.72
2023-01-29T08:52:59.747Z,101038.66
2023-01-29T08:55:27.390Z,101029.72
2023-01-29T08:57:54.510Z,101025.34
2023-01-29T09:00:21.777Z,101020.66
2023-01-29T09:02:48.728Z,101023.38
2023-01-29T09:05:15.891Z,101024.09
2023-01-29T09:07:42.950Z,101029.03
2023-01-29T09:10:10.706Z,101042.72
2023-01-29T09:12:37.721Z,101028.06
2023-01-29T09:15:04.913Z,101020.06
2023-01-29T09:17:31.914Z,101034.06
2023-01-29T09:19:58.956Z,101030.88
2023-01-29T09:22:25.926Z,101028.81
2023-01-29T09:24:52.816Z,101015.22
2023-01-29T09:27:19.843Z,101014.56
2023-01-29T09:29:46.651Z,101017.00
2023-01-29T09:32:13.553Z,101011.16
2023-01-29T09:34:40.431Z,101011.66
2023-01-29T09:37:07.285Z,101021.63
2023-01-29T09:39:34.601Z,101011.59
2023-01-29T09:42:20.746Z,101018.25
2023-01-29T09:44:59.928Z,101000.63
2023-01-29T09:47:28.273Z,101004.91
2023-01-29T09:50:05.735Z,101007.88
2023-01-29T09:52:37.987Z,100997.75
2023-01-29T09:55:04.701Z,100996.34
2023-01-29T09:57:51.191Z,100992.22
2023-01-29T10:00:31.421Z,100995.84
2023-01-29T10:03:22.762Z,100992.41
2023-01-29T10:05:49.614Z,100998.16
2023-01-29T10:08:45.350Z,101000.56
2023-01-29T10:11:26.614Z,101007.72
2023-01-29T10:14:12.136Z,100988.38
2023-01-29T10:17:04.923Z,100982.50
2023-01-29T10:19:53.642Z,100996.94
2023-01-29T10:22:35.721Z,100985.88
2023-01-29T10:25:23.008Z,100997.84
2023-01-29T10:27:55.316Z,100993.81
2023-01-29T10:30:27.225Z,101013.16
2023-01-29T10:32:56.247Z,100995.78
2023-01-29T10:35:29.092Z,101003.75
2023-01-29T10:38:01.768Z,100998.28
2023-01-29T10:40:47.042Z,100999.66
2023-01-29T10:43:27.519Z,101012.09
2023-01-29T10:46:09.564Z,101004.91
2023-01-29T10:48:39.388Z,100994.47
2023-01-29T10:51:22.565Z,100986.78
2023-01-29T10:54:18.022Z,100983.44
2023-01-29T10:56:53.611Z,100982.13
2023-01-29T10:59:39.703Z,100982.13
2023-01-29T11:02:18.006Z,100980.97
2023-01-29T11:04:45.494Z,100977.84
2023-01-29T11:07:13.918Z,100986.06
2023-01-29T11:09:54.778Z,100991.81
2023-01-29T11:12:27.432Z,100994.72
2023-01-29T11:15:11.914Z,100979.31
2023-01-29T11:17:38.826Z,100997.84
2023-01-29T11:20:25.655Z,100997.59
2023-01-29T11:22:55.879Z,100997.75
2023-01-29T11:25:22.794Z,101008.47
2023-01-29T11:27:50.809Z,101001.84
2023-01-29T11:30:34.676Z,101008.53
2023-01-29T11:33:18.657Z,101006.25
2023-01-29T11:35:45.734Z,100991.31
2023-01-29T11:38:15.752Z,100995.53
2023-01-29T11:40:43.879Z,101009.25
2023-01-29T11:43:31.116Z,101007.38
2023-01-29T11:46:03.062Z,101015.41
2023-01-29T11:48:50.309Z,101006.47
2023-01-29T11:51:29.012Z,101005.81
2023-01-29T11:54:00.014Z,100994.28
2023-01-29T11:56:39.242Z,101004.50
2023-01-29T11:59:06.345Z,101004.88
2023-01-29T12:01:36.967Z,100995.66
2023-01-29T12:04:20.977Z,101001.56
2023-01-29T12:06:52.636Z,100989.25
2023-01-29T12:09:28.865Z,100998.34
2023-01-29T12:11:55.946Z,100986.69
2023-01-29T12:14:34.351Z,100991.84
2023-01-29T12:17:19.767Z,100992.94
2023-01-29T12:19:53.518Z,101008.25
2023-01-29T12:22:43.109Z,101009.03
2023-01-29T12:25:31.538Z,101015.47
2023-01-29T12:28:04.418Z,101012.97
2023-01-29T12:30:50.649Z,101016.91
2023-01-29T12:33:38.914Z,101019.22
2023-01-29T12:36:22.809Z,101026.31
2023-01-29T12:38:49.874Z,101021.72
2023-01-29T12:41:32.198Z,101021.38
2023-01-29T12:44:06.292Z,101016.09
2023-01-29T12:46:42.320Z,101016.28
2023-01-29T12:49:16.887Z,101021.38
2023-01-29T12:52:13.955Z,101022.31
2023-01-29T12:55:10.779Z,101023.09
2023-01-29T12:57:56.225Z,101022.22
2023-01-29T13:00:26.870Z,101023.59
2023-01-29T13:03:25.510Z,101030.09
2023-01-29T13:05:57.393Z,101028.41
2023-01-29T13:08:30.797Z,101024.75
2023-01-29T13:11:01.601Z,101021.91
2023-01-29T13:13:54.155Z,101032.16
2023-01-29T13:16:28.028Z,101032.06
2023-01-29T13:19:09.664Z,101034.00
2023-01-29T13:21:42.088Z,101038.09
2023-01-29T13:24:14.553Z,101036.72
2023-01-29T13:26:45.500Z,101048.78
2023-01-29T13:29:28.952Z,101044.59
2023-01-29T13:31:58.864Z,101044.50
2023-01-29T13:34:31.684Z,101050.44
2023-01-29T13:37:17.266Z,101055.25
2023-01-29T13:39:51.384Z,101055.72
2023-01-29T13:42:23.550Z,101066.59
2023-01-29T13:44:57.495Z,101058.94
2023-01-29T13:47:33.511Z,101062.56
2023-01-29T13:50:07.597Z,101059.44
2023-01-29T13:52:44.740Z,101066.44
2023-01-29T13:55:14.823Z,101061.13
2023-01-29T13:57:44.805Z,101060.56
2023-01-29T14:00:20.668Z,101060.25
2023-01-29T14:03:13.553Z,101061.63
2023-01-29T14:05:40.461Z,101057.19
2023-01-29T14:08:13.490Z,101058.38
2023-01-29T14:10:42.196Z,101064.88
2023-01-29T14:13:18.184Z,101062.47
2023-01-29T14:16:06.333Z,101073.34
2023-01-29T14:18:35.638Z,101056.72
2023-01-29T14:21:14.530Z,101066.44
2023-01-29T14:23:46.925Z,101063.69
2023-01-29T14:26:20.077Z,101072.28
2023-01-29T14:28:58.813Z,101066.09
2023-01-29T14:31:49.464Z,101067.50
2023-01-29T14:34:31.102Z,101078.47
2023-01-29T14:37:04.034Z,101083.00
2023-01-29T14:39:43.180Z,101078.56
2023-01-29T14:42:34.962Z,101078.28
2023-01-29T14:45:24.763Z,101095.28
2023-01-29T14:47:54.473Z,101090.16
2023-01-29T14:50:33.651Z,101092.22
2023-01-29T14:53:46.073Z,101090.41
2023-01-29T14:56:22.060Z,101094.28
2023-01-29T14:59:13.747Z,101088.44
2023-01-29T15:01:47.945Z,101089.44
2023-01-29T15:04:20.750Z,101088.94
2023-01-29T15:06:55.158Z,101085.78
2023-01-29T15:09:48.623Z,101088.28
2023-01-29T15:12:43.835Z,101095.84
2023-01-29T15:30:08.233Z,101101.47
2023-01-29T15:32:40.116Z,101110.59
2023-01-29T15:35:31.238Z,101117.03
2023-01-29T15:38:01.868Z,101113.75
2023-01-29T15:40:29.056Z,101118.06
2023-01-29T15:42:56.030Z,101129.25
2023-01-29T15:45:31.040Z,101130.38
2023-01-29T15:48:14.949Z,101123.53
2023-01-29T15:50:43.204Z,101125.75
2023-01-29T15:53:19.726Z,101133.56
2023-01-29T15:55:47.737Z,101126.97
2023-01-29T15:58:18.381Z,101130.25
2023-01-29T16:00:56.829Z,101137.00
2023-01-29T16:03:25.548Z,101139.16
2023-01-29T16:05:52.958Z,101131.28
2023-01-29T16:08:22.049Z,101133.78
2023-01-29T16:10:57.226Z,101137.16
2023-01-29T16:13:32.759Z,101134.28
2023-01-29T16:16:04.003Z,101142.28
2023-01-29T16:18:34.507Z,101136.13
2023-01-29T16:21:15.903Z,101149.06
2023-01-29T16:23:48.631Z,101141.88
2023-01-29T16:26:22.597Z,101157.03
2023-01-29T16:28:49.722Z,101152.13
2023-01-29T16:31:44.655Z,101150.69
2023-01-29T16:34:37.896Z,101158.06
2023-01-29T16:37:16.543Z,101155.19
2023-01-29T16:39:47.242Z,101154.78
2023-01-29T16:42:17.606Z,101146.16
2023-01-29T16:44:52.529Z,101149.47
2023-01-29T16:47:25.581Z,101146.03
2023-01-29T16:50:18.314Z,101150.56
2023-01-29T16:53:02.984Z,101149.63
2023-01-29T16:55:38.104Z,101148.09
2023-01-29T16:58:22.884Z,101155.91
2023-01-29T17:00:55.033Z,101153.84
2023-01-29T17:03:25.259Z,101155.53
2023-01-29T17:05:52.608Z,101144.41
2023-01-29T17:08:33.178Z,101154.78
2023-01-29T17:11:01.471Z,101152.84
2023-01-29T17:13:42.748Z,101153.63
2023-01-29T17:16:19.654Z,101157.84
2023-01-29T17:18:46.922Z,101153.78
2023-01-29T17:21:13.933Z,101150.34
2023-01-29T17:23:40.724Z,101149.59
2023-01-29T17:26:10.102Z,101159.34
2023-01-29T17:28:37.558Z,101167.53
2023-01-29T17:31:07.175Z,101152.34
2023-01-29T17:33:36.197Z,101155.19
2023-01-29T17:36:03.220Z,101152.22
2023-01-29T17:38:30.176Z,101157.50
2023-01-29T17:41:06.659Z,101155.44
2023-01-29T17:43:34.419Z,101159.06
2023-01-29T17:46:01.434Z,101144.53
2023-01-29T17:48:30.442Z,101154.47
2023-01-29T17:51:00.641Z,101149.53
2023-01-29T17:53:43.367Z,101158.50
2023-01-29T17:56:30.753Z,101146.59
2023-01-29T17:58:57.591Z,101153.41
2023-01-29T18:01:24.686Z,101157.72
2023-01-29T18:03:51.846Z,101160.63
2023-01-29T18:06:28.124Z,101153.13
2023-01-29T18:08:56.435Z,101157.78
2023-01-29T18:11:23.831Z,101160.72
2023-01-29T18:13:51.430Z,101154.63
2023-01-29T18:16:18.744Z,101159.72
2023-01-29T18:18:45.635Z,101159.28
2023-01-29T18:21:12.483Z,101151.91
2023-01-29T18:23:40.144Z,101143.09
2023-01-29T18:26:07.779Z,101154.84
2023-01-29T18:28:34.691Z,101153.41
2023-01-29T18:31:02.600Z,101148.59
2023-01-29T18:33:29.657Z,101154.00
2023-01-29T18:35:57.185Z,101146.47
2023-01-29T18:38:24.315Z,101145.75
2023-01-29T18:40:51.142Z,101148.63
2023-01-29T18:43:18.077Z,101145.75
2023-01-29T18:45:44.975Z,101153.19
2023-01-29T18:48:11.911Z,101148.09
2023-01-29T18:50:38.700Z,101151.41
2023-01-29T18:53:05.735Z,101148.75
2023-01-29T18:55:32.563Z,101140.31
2023-01-29T18:58:25.060Z,101152.41
2023-01-29T19:00:47.918Z,101164.91
2023-01-29T19:06:33.766Z,101146.84
2023-01-29T19:09:00.590Z,101153.72
2023-01-29T19:11:27.419Z,101153.69
2023-01-29T19:13:54.989Z,101147.19
2023-01-29T19:16:21.863Z,101136.75
2023-01-29T19:18:48.846Z,101138.00
2023-01-29T19:21:16.368Z,101132.53
2023-01-29T19:23:44.709Z,101134.66
2023-01-29T19:26:12.186Z,101136.50
2023-01-29T19:28:39.325Z,101139.94
2023-01-29T19:31:06.244Z,101143.31
2023-01-29T19:33:33.112Z,101137.66
2023-01-29T19:36:00.115Z,101135.78
2023-01-29T19:38:27.735Z,101140.81
2023-01-29T19:40:57.683Z,101143.97
2023-01-29T19:43:24.815Z,101141.09
2023-01-29T19:45:58.495Z,101141.75
2023-01-29T19:48:26.658Z,101143.03
2023-01-29T19:50:58.872Z,101141.53
2023-01-29T19:53:27.263Z,101144.53
2023-01-29T19:56:16.678Z,101139.00
2023-01-29T19:58:43.901Z,101138.56
2023-01-29T20:01:16.317Z,101139.56
2023-01-29T20:03:46.613Z,101138.25
2023-01-29T20:06:15.774Z,101138.84
2023-01-29T20:08:45.459Z,101135.56
2023-01-29T20:11:14.128Z,101136.94
2023-01-29T20:13:41.166Z,101127.88
2023-01-29T20:16:08.228Z,101140.78
2023-01-29T20:18:35.384Z,101137.38
2023-01-29T20:21:10.283Z,101132.63
2023-01-29T20:23:39.877Z,101139.59
2023-01-29T20:26:09.727Z,101137.22
2023-01-29T20:28:36.948Z,101137.94
2023-01-29T20:31:05.311Z,101138.94
2023-01-29T20:33:33.708Z,101142.22
2023-01-29T20:36:03.664Z,101138.88
2023-01-29T20:38:31.931Z,101143.25
2023-01-29T20:41:16.641Z,101141.03
2023-01-29T20:43:44.510Z,101143.03
2023-01-29T20:46:11.882Z,101139.38
2023-01-29T20:48:39.200Z,101138.34
2023-01-29T20:51:13.877Z,101134.22
2023-01-29T20:53:43.170Z,101136.75
2023-01-29T20:56:11.334Z,101143.81
2023-01-29T20:58:39.009Z,101151.53
2023-01-29T21:01:09.627Z,101140.88
2023-01-29T21:03:36.605Z,101133.00
2023-01-29T21:06:03.617Z,101138.22
2023-01-29T21:08:30.476Z,101130.75
2023-01-29T21:10:57.384Z,101127.69
2023-01-29T21:13:24.297Z,101128.94
2023-01-29T21:15:51.377Z,101124.25
2023-01-29T21:18:18.327Z,101133.78
2023-01-29T21:20:49.022Z,101134.28
2023-01-29T21:23:15.913Z,101139.03
2023-01-29T21:25:42.832Z,101137.56
2023-01-29T21:28:09.806Z,101133.94
2023-01-29T21:30:36.969Z,101151.97
2023-01-29T21:33:05.382Z,101149.53
2023-01-29T21:35:32.696Z,101163.28
2023-01-29T21:37:59.553Z,101156.28
2023-01-29T21:40:26.512Z,101151.56
2023-01-29T21:43:11.556Z,101149.97
2023-01-29T21:45:39.755Z,101130.50
2023-01-29T21:48:07.138Z,101139.94
2023-01-29T21:50:34.294Z,101133.94
2023-01-29T21:53:01.551Z,101142.19
2023-01-29T21:55:28.533Z,101140.25
2023-01-29T21:57:55.450Z,101138.25
2023-01-29T22:00:22.489Z,101135.56
2023-01-29T22:02:50.247Z,101128.63
2023-01-29T22:05:19.799Z,101131.41
2023-01-29T22:07:48.305Z,101127.13
2023-01-29T22:10:19.919Z,101119.47
2023-01-29T22:12:47.777Z,101122.44
2023-01-29T22:15:15.613Z,101115.84
2023-01-29T22:17:42.719Z,101119.41
2023-01-29T22:20:12.064Z,101107.25
2023-01-29T22:22:38.980Z,101105.00
2023-01-29T22:25:06.194Z,101108.81
2023-01-29T22:27:34.036Z,101110.16
2023-01-29T22:30:01.343Z,101107.31
2023-01-29T22:32:28.605Z,101098.88
2023-01-29T22:34:55.610Z,101097.38
2023-01-29T22:37:22.503Z,101099.16
2023-01-29T22:39:49.350Z,101107.63
2023-01-29T22:42:19.565Z,101097.38
2023-01-29T22:44:48.040Z,101111.44
2023-01-29T22:47:15.194Z,101114.09
2023-01-29T22:49:44.613Z,101124.75
2023-01-29T22:52:11.891Z,101127.34
2023-01-29T22:54:40.786Z,101125.63
2023-01-29T22:57:12.293Z,101128.03
2023-01-29T22:59:39.592Z,101125.53
2023-01-29T23:02:07.429Z,101122.06
2023-01-29T23:04:34.333Z,101125.75
2023-01-29T23:07:01.197Z,101126.34
2023-01-29T23:09:28.128Z,101112.88
2023-01-29T23:11:55.053Z,101119.78
2023-01-29T23:14:22.027Z,101121.28
2023-01-29T23:16:48.939Z,101108.44
2023-01-29T23:19:15.874Z,101120.31
2023-01-29T23:21:42.778Z,101117.59
2023-01-29T23:24:10.236Z,101119.13
2023-01-29T23:26:55.845Z,101112.38
2023-01-29T23:29:23.033Z,101117.41
2023-01-29T23:31:49.999Z,101112.41
2023-01-29T23:34:16.857Z,101121.50
2023-01-29T23:36:43.816Z,101115.66
2023-01-29T23:39:11.510Z,101110.31
2023-01-29T23:41:38.511Z,101105.66
2023-01-29T23:44:05.528Z,101099.50
2023-01-29T23:46:32.719Z,101105.94
2023-01-29T23:48:59.791Z,101101.63
2023-01-29T23:51:26.723Z,101096.47
2023-01-29T23:53:53.785Z,101097.22
2023-01-29T23:56:21.072Z,101093.88
2023-01-29T23:58:48.022Z,101090.84
